createdAt,value
2023-12-14T00:01:37.215Z,3.70
2023-12-14T00:04:51.736Z,3.68
2023-12-14T00:08:04.305Z,3.78
2023-12-14T00:11:17.873Z,3.79
2023-12-14T00:14:30.284Z,3.74
2023-12-14T00:17:42.904Z,3.74
2023-12-14T00:20:55.575Z,3.72
2023-12-14T00:24:09.161Z,3.69
2023-12-14T00:27:21.922Z,3.68
2023-12-14T00:30:34.098Z,3.68
2023-12-14T00:33:46.762Z,3.72
2023-12-14T00:36:59.489Z,3.70
2023-12-14T00:40:13.897Z,3.68
2023-12-14T00:43:26.153Z,3.65
2023-12-14T00:46:38.492Z,3.60
2023-12-14T00:49:50.947Z,3.62
2023-12-14T00:53:03.163Z,3.66
2023-12-14T00:56:18.613Z,3.64
2023-12-14T00:59:32.064Z,3.62
2023-12-14T01:02:47.239Z,3.69
2023-12-14T01:05:59.643Z,3.74
2023-12-14T01:09:12.260Z,3.69
2023-12-14T01:12:24.612Z,3.63
2023-12-14T01:15:39.120Z,3.61
2023-12-14T01:18:51.584Z,3.62
2023-12-14T01:22:06.059Z,3.67
2023-12-14T01:25:19.312Z,3.68
2023-12-14T01:28:31.735Z,3.71
2023-12-14T01:31:44.286Z,3.78
2023-12-14T01:34:56.571Z,3.76
2023-12-14T01:38:08.985Z,3.77
2023-12-14T01:41:21.543Z,3.80
2023-12-14T01:44:36.262Z,3.77
2023-12-14T01:47:48.967Z,3.78
2023-12-14T01:51:01.310Z,3.76
2023-12-14T01:54:13.566Z,3.75
2023-12-14T01:57:25.821Z,3.76
2023-12-14T02:00:45.240Z,3.76
2023-12-14T02:04:00.541Z,3.86
2023-12-14T02:07:13.211Z,3.94
2023-12-14T02:10:25.634Z,4.00
2023-12-14T02:13:40.451Z,4.03
2023-12-14T02:16:53.003Z,4.04
2023-12-14T02:20:05.505Z,4.04
2023-12-14T02:23:17.994Z,4.05
2023-12-14T02:26:30.565Z,4.06
2023-12-14T02:29:42.968Z,4.06
2023-12-14T02:32:55.227Z,4.07
2023-12-14T02:36:08.547Z,3.98
2023-12-14T02:39:20.967Z,3.99
2023-12-14T02:42:33.726Z,3.98
2023-12-14T02:45:46.304Z,3.92
2023-12-14T02:49:01.232Z,3.85
2023-12-14T02:52:16.460Z,3.87
2023-12-14T02:55:28.463Z,3.84
2023-12-14T02:58:40.947Z,3.82
2023-12-14T03:01:53.251Z,3.81
2023-12-14T03:05:06.851Z,3.88
2023-12-14T03:08:20.018Z,3.86
2023-12-14T03:11:32.751Z,3.87
2023-12-14T03:14:45.723Z,3.92
2023-12-14T03:17:58.503Z,3.94
2023-12-14T03:21:13.663Z,3.96
2023-12-14T03:24:25.981Z,3.96
2023-12-14T03:27:38.111Z,3.89
2023-12-14T03:30:52.481Z,3.83
2023-12-14T03:34:06.959Z,3.82
2023-12-14T03:37:19.437Z,3.73
2023-12-14T03:40:34.039Z,3.75
2023-12-14T03:43:46.383Z,3.84
2023-12-14T03:46:59.567Z,3.86
2023-12-14T03:50:16.501Z,3.78
2023-12-14T03:53:28.734Z,3.75
2023-12-14T03:56:41.300Z,3.73
2023-12-14T03:59:55.681Z,3.74
2023-12-14T04:03:08.004Z,3.77
2023-12-14T04:06:21.817Z,3.79
2023-12-14T04:09:33.804Z,3.77
2023-12-14T04:12:46.943Z,3.79
2023-12-14T04:15:59.321Z,3.76
2023-12-14T04:19:14.097Z,3.72
2023-12-14T04:22:28.769Z,3.71
2023-12-14T04:25:41.286Z,3.71
2023-12-14T04:28:53.809Z,3.70
2023-12-14T04:32:06.365Z,3.77
2023-12-14T04:35:19.042Z,3.86
2023-12-14T04:38:31.472Z,3.92
2023-12-14T04:41:44.146Z,3.96
2023-12-14T04:44:56.721Z,3.98
2023-12-14T04:48:09.671Z,3.98
2023-12-14T04:51:24.509Z,3.97
2023-12-14T04:54:38.880Z,3.94
2023-12-14T04:57:52.063Z,3.87
2023-12-14T05:01:04.749Z,3.87
2023-12-14T05:04:17.355Z,3.80
2023-12-14T05:07:31.468Z,3.86
2023-12-14T05:10:43.904Z,3.90
2023-12-14T05:13:56.489Z,3.91
2023-12-14T05:17:09.094Z,3.95
2023-12-14T05:20:22.238Z,3.90
2023-12-14T05:23:34.962Z,3.84
2023-12-14T05:26:47.703Z,3.78
2023-12-14T05:30:00.231Z,3.81
2023-12-14T05:33:13.566Z,3.85
2023-12-14T05:36:26.209Z,3.81
2023-12-14T05:39:38.667Z,3.71
2023-12-14T05:42:53.386Z,3.70
2023-12-14T05:46:06.291Z,3.71
2023-12-14T05:49:18.794Z,3.69
2023-12-14T05:52:31.466Z,3.64
2023-12-14T05:55:47.656Z,3.65
2023-12-14T05:59:00.721Z,3.59
2023-12-14T06:02:13.876Z,3.56
2023-12-14T06:05:26.521Z,3.56
2023-12-14T06:08:39.113Z,3.59
2023-12-14T06:11:52.469Z,3.57
2023-12-14T06:15:05.792Z,3.64
2023-12-14T06:18:21.211Z,3.59
2023-12-14T06:21:35.001Z,3.54
2023-12-14T06:24:49.410Z,3.54
2023-12-14T06:28:01.710Z,3.53
2023-12-14T06:31:19.748Z,3.47
2023-12-14T06:34:31.898Z,3.51
2023-12-14T06:37:43.839Z,3.57
2023-12-14T07:29:40.000Z,3.89
2023-12-14T09:49:05.457Z,4.33
2023-12-14T10:02:59.424Z,4.40
2023-12-14T10:11:44.851Z,4.64
2023-12-14T10:15:47.946Z,4.75
2023-12-14T10:24:40.118Z,4.97
2023-12-14T10:28:53.630Z,5.01
2023-12-14T10:37:37.744Z,5.01
2023-12-14T10:41:55.084Z,5.03
2023-12-14T10:46:22.604Z,5.05
2023-12-14T10:54:28.468Z,4.88
2023-12-14T10:58:32.618Z,4.79
2023-12-14T11:02:39.801Z,4.80
2023-12-14T11:07:22.517Z,4.86
2023-12-14T11:11:31.936Z,4.96
2023-12-14T11:20:00.424Z,4.93
2023-12-14T11:23:46.622Z,4.95
2023-12-14T11:27:43.285Z,4.96
2023-12-14T11:41:05.969Z,4.88
2023-12-14T11:45:10.872Z,4.98
2023-12-14T11:49:34.087Z,4.91
2023-12-14T12:01:42.700Z,5.02
2023-12-14T12:05:20.299Z,4.97
2023-12-14T12:09:18.164Z,4.99
2023-12-14T12:13:26.133Z,5.00
2023-12-14T12:16:54.749Z,4.97
2023-12-14T12:20:49.437Z,5.00
2023-12-14T12:25:15.471Z,5.06
2023-12-14T12:29:10.276Z,5.06
2023-12-14T12:33:06.455Z,5.06
2023-12-14T12:37:43.102Z,5.07
2023-12-14T12:46:00.138Z,4.94
2023-12-14T12:59:01.620Z,4.78
2023-12-14T13:03:08.969Z,4.85
2023-12-14T13:07:22.674Z,4.81
2023-12-14T13:11:45.937Z,4.83
2023-12-14T13:29:07.255Z,4.77
2023-12-14T13:33:29.268Z,4.71
2023-12-14T13:42:04.781Z,4.69
2023-12-14T13:45:45.014Z,4.67
2023-12-14T13:52:36.597Z,4.68
2023-12-14T14:06:04.039Z,4.70
2023-12-14T14:10:22.384Z,4.70
2023-12-14T14:14:25.687Z,4.71
2023-12-14T14:18:40.803Z,4.71
2023-12-14T14:22:46.365Z,4.71
2023-12-14T14:27:47.234Z,4.69
2023-12-14T14:39:40.736Z,4.73
2023-12-14T14:44:38.849Z,4.69
2023-12-14T14:49:32.397Z,4.69
2023-12-14T14:53:58.797Z,4.64
2023-12-14T15:03:01.330Z,4.63
2023-12-14T15:07:01.320Z,4.64
2023-12-14T15:11:28.090Z,4.63
2023-12-14T15:20:36.833Z,4.66
2023-12-14T15:24:47.362Z,4.63
2023-12-14T15:29:11.361Z,4.67
2023-12-14T15:32:58.192Z,4.67
2023-12-14T15:37:03.974Z,4.66
2023-12-14T15:41:01.835Z,4.68
2023-12-14T15:45:10.215Z,4.70
2023-12-14T15:49:14.391Z,4.70
2023-12-14T15:52:57.597Z,4.71
2023-12-14T15:59:57.888Z,4.72
2023-12-14T16:03:50.924Z,4.66
2023-12-14T16:07:56.547Z,4.66
2023-12-14T16:18:16.370Z,4.72
2023-12-14T16:22:53.638Z,4.75
2023-12-14T16:27:08.605Z,4.78
2023-12-14T16:40:54.434Z,4.73
2023-12-14T16:50:19.033Z,4.76
2023-12-14T20:56:35.970Z,4.20
2023-12-14T20:59:55.818Z,4.27
2023-12-14T21:03:11.557Z,4.23
2023-12-14T21:06:29.283Z,4.20
2023-12-14T21:09:42.927Z,4.20
2023-12-14T21:12:58.289Z,4.23
2023-12-14T21:16:12.114Z,4.25
2023-12-14T21:19:27.428Z,4.27
2023-12-14T21:22:42.403Z,4.31
2023-12-14T21:25:59.252Z,4.31
2023-12-14T21:29:12.006Z,4.30
2023-12-14T21:32:27.542Z,4.31
2023-12-14T21:35:42.622Z,4.31
2023-12-14T21:38:55.202Z,4.32
2023-12-14T21:42:10.742Z,4.32
2023-12-14T21:45:23.452Z,4.28
2023-12-14T21:48:36.508Z,4.26
2023-12-14T21:51:51.506Z,4.28
2023-12-14T21:55:04.167Z,4.22
2023-12-14T21:58:16.848Z,4.24
2023-12-14T22:01:31.643Z,4.25
2023-12-14T22:04:45.862Z,4.22
2023-12-14T22:07:58.779Z,4.15
2023-12-14T22:11:13.826Z,4.05
2023-12-14T22:14:28.847Z,4.04
2023-12-14T22:17:42.282Z,4.06
2023-12-14T22:20:57.377Z,3.95
2023-12-14T22:24:13.275Z,3.91
2023-12-14T22:27:28.442Z,3.90
2023-12-14T22:30:41.756Z,3.87
2023-12-14T22:33:54.250Z,3.91
2023-12-14T22:37:06.834Z,3.86
2023-12-14T22:40:21.258Z,3.84
2023-12-14T22:43:34.926Z,3.90
2023-12-14T22:46:49.393Z,3.90
2023-12-14T22:50:01.977Z,3.92
2023-12-14T22:53:19.609Z,3.97
2023-12-14T22:56:34.644Z,3.98
2023-12-14T22:59:47.340Z,3.90
2023-12-14T23:03:00.930Z,3.89
2023-12-14T23:06:15.025Z,3.92
2023-12-14T23:09:27.809Z,3.90
2023-12-14T23:12:42.715Z,3.84
2023-12-14T23:15:55.193Z,3.86
2023-12-14T23:19:07.576Z,3.81
2023-12-14T23:22:23.921Z,3.81
2023-12-14T23:25:36.442Z,3.75
2023-12-14T23:28:49.036Z,3.74
2023-12-14T23:32:01.590Z,3.79
2023-12-14T23:35:16.032Z,3.78
2023-12-14T23:38:28.621Z,3.79
2023-12-14T23:41:43.380Z,3.77
2023-12-14T23:44:56.032Z,3.78
2023-12-14T23:48:09.096Z,3.69
2023-12-14T23:51:22.250Z,3.71
2023-12-14T23:54:36.253Z,3.67
2023-12-14T23:57:48.885Z,3.71
